Terminal Aerodrome Forecast
Issued by NWS

Home | Current Version | Previous Version | Text Only | Print | Product List | Glossary On
Versions: 1 2 3 4 5 6 7 8 9 10 11 12 13 14 15 16 17 18 19 20 21 22 23 24 25 26 27 28 29 30 31 32 33 34 35 36 37 38 39 40 41
000
FTUS43 KDTX 271720
TAFYIP
TAF
KYIP 271720Z 2718/2818 33013KT 6SM -SN SCT030 OVC045
      TEMPO 2718/2720 2SM -SN BKN020
     FM272300 34007KT P6SM BKN035
     FM281000 24007KT P6SM SCT030=

USA.gov is the U.S. government's official web portal to all federal, state and local government web resources and services.